sensor_id;sensor_type;location;lat;lon;timestamp;pressure;altitude;pressure_sealevel;temperature;humidity
70546;BME280;58098;51.680;5.134;2023-12-14T00:02:05;100950.03;;;6.30;100.00
70546;BME280;58098;51.680;5.134;2023-12-14T00:04:30;100958.25;;;6.37;100.00
70546;BME280;58098;51.680;5.134;2023-12-14T00:06:56;100951.41;;;6.36;100.00
70546;BME280;58098;51.680;5.134;2023-12-14T00:09:21;100965.38;;;6.33;100.00
70546;BME280;58098;51.680;5.134;2023-12-14T00:11:46;100968.78;;;6.34;100.00
70546;BME280;58098;51.680;5.134;2023-12-14T00:14:11;100957.69;;;6.18;100.00
70546;BME280;58098;51.680;5.134;2023-12-14T00:16:37;100985.25;;;6.19;100.00
70546;BME280;58098;51.680;5.134;2023-12-14T00:19:02;100989.13;;;6.12;100.00
70546;BME280;58098;51.680;5.134;2023-12-14T00:21:28;100984.75;;;5.98;100.00
70546;BME280;58098;51.680;5.134;2023-12-14T00:23:53;100979.91;;;5.92;100.00
70546;BME280;58098;51.680;5.134;2023-12-14T00:26:18;100997.81;;;6.11;100.00
70546;BME280;58098;51.680;5.134;2023-12-14T00:28:44;101003.75;;;6.13;100.00
70546;BME280;58098;51.680;5.134;2023-12-14T00:31:09;101014.84;;;6.15;100.00
70546;BME280;58098;51.680;5.134;2023-12-14T00:33:34;101015.56;;;6.03;100.00
70546;BME280;58098;51.680;5.134;2023-12-14T00:36:00;101015.88;;;5.96;100.00
70546;BME280;58098;51.680;5.134;2023-12-14T00:38:25;101030.53;;;5.97;100.00
70546;BME280;58098;51.680;5.134;2023-12-14T00:40:50;101017.44;;;5.85;100.00
70546;BME280;58098;51.680;5.134;2023-12-14T00:43:16;101023.34;;;5.87;100.00
70546;BME280;58098;51.680;5.134;2023-12-14T00:45:41;101012.56;;;5.94;100.00
70546;BME280;58098;51.680;5.134;2023-12-14T00:48:07;101021.16;;;5.95;100.00
70546;BME280;58098;51.680;5.134;2023-12-14T00:50:32;101029.63;;;5.98;100.00
70546;BME280;58098;51.680;5.134;2023-12-14T00:52:57;101044.31;;;5.98;100.00
70546;BME280;58098;51.680;5.134;2023-12-14T00:55:23;101028.09;;;5.94;100.00
70546;BME280;58098;51.680;5.134;2023-12-14T00:57:48;101045.84;;;5.86;100.00
70546;BME280;58098;51.680;5.134;2023-12-14T01:00:14;101065.72;;;5.86;100.00
70546;BME280;58098;51.680;5.134;2023-12-14T01:02:39;101057.50;;;5.78;100.00
70546;BME280;58098;51.680;5.134;2023-12-14T01:05:05;101059.00;;;5.82;100.00
70546;BME280;58098;51.680;5.134;2023-12-14T01:07:30;101080.31;;;5.87;100.00
70546;BME280;58098;51.680;5.134;2023-12-14T01:09:55;101077.41;;;5.93;100.00
70546;BME280;58098;51.680;5.134;2023-12-14T01:12:21;101066.63;;;5.85;100.00
70546;BME280;58098;51.680;5.134;2023-12-14T01:14:46;101086.66;;;5.81;100.00
70546;BME280;58098;51.680;5.134;2023-12-14T01:17:11;101088.31;;;5.82;100.00
70546;BME280;58098;51.680;5.134;2023-12-14T01:19:39;101084.50;;;5.74;100.00
70546;BME280;58098;51.680;5.134;2023-12-14T01:22:05;101094.09;;;5.72;100.00
70546;BME280;58098;51.680;5.134;2023-12-14T01:24:31;101087.34;;;5.69;100.00
70546;BME280;58098;51.680;5.134;2023-12-14T01:26:56;101106.00;;;5.74;100.00
70546;BME280;58098;51.680;5.134;2023-12-14T01:29:21;101104.09;;;5.78;100.00
70546;BME280;58098;51.680;5.134;2023-12-14T01:31:47;101108.28;;;5.80;100.00
70546;BME280;58098;51.680;5.134;2023-12-14T01:34:12;101109.97;;;5.81;100.00
70546;BME280;58098;51.680;5.134;2023-12-14T01:36:37;101124.72;;;5.79;100.00
70546;BME280;58098;51.680;5.134;2023-12-14T01:39:03;101115.88;;;5.68;100.00
70546;BME280;58098;51.680;5.134;2023-12-14T01:41:28;101136.16;;;5.75;100.00
70546;BME280;58098;51.680;5.134;2023-12-14T01:43:53;101136.69;;;5.66;100.00
70546;BME280;58098;51.680;5.134;2023-12-14T01:46:19;101145.44;;;5.64;100.00
70546;BME280;58098;51.680;5.134;2023-12-14T01:48:44;101124.69;;;5.48;100.00
70546;BME280;58098;51.680;5.134;2023-12-14T01:51:09;101170.91;;;5.71;100.00
70546;BME280;58098;51.680;5.134;2023-12-14T01:53:34;101174.06;;;5.61;100.00
70546;BME280;58098;51.680;5.134;2023-12-14T01:56:00;101193.03;;;5.61;100.00
70546;BME280;58098;51.680;5.134;2023-12-14T01:58:25;101158.25;;;5.34;100.00
70546;BME280;58098;51.680;5.134;2023-12-14T02:03:47;101186.75;;;5.50;100.00
70546;BME280;58098;51.680;5.134;2023-12-14T02:06:13;101200.94;;;5.58;100.00
70546;BME280;58098;51.680;5.134;2023-12-14T02:08:39;101204.38;;;5.59;100.00
70546;BME280;58098;51.680;5.134;2023-12-14T02:11:04;101211.00;;;5.64;100.00
70546;BME280;58098;51.680;5.134;2023-12-14T02:13:29;101213.13;;;5.56;100.00
70546;BME280;58098;51.680;5.134;2023-12-14T02:15:55;101220.16;;;5.54;100.00
70546;BME280;58098;51.680;5.134;2023-12-14T02:18:20;101223.78;;;5.50;100.00
70546;BME280;58098;51.680;5.134;2023-12-14T02:20:45;101228.06;;;5.51;100.00
70546;BME280;58098;51.680;5.134;2023-12-14T02:23:11;101228.16;;;5.50;100.00
70546;BME280;58098;51.680;5.134;2023-12-14T02:25:36;101243.34;;;5.56;100.00
70546;BME280;58098;51.680;5.134;2023-12-14T02:28:01;101239.00;;;5.56;100.00
70546;BME280;58098;51.680;5.134;2023-12-14T02:30:27;101235.44;;;5.59;100.00
70546;BME280;58098;51.680;5.134;2023-12-14T02:32:52;101239.16;;;5.53;100.00
70546;BME280;58098;51.680;5.134;2023-12-14T02:35:17;101237.50;;;5.52;100.00
70546;BME280;58098;51.680;5.134;2023-12-14T02:37:43;101252.19;;;5.52;100.00
70546;BME280;58098;51.680;5.134;2023-12-14T02:40:10;101246.28;;;5.50;100.00
70546;BME280;58098;51.680;5.134;2023-12-14T02:42:35;101253.03;;;5.52;100.00
70546;BME280;58098;51.680;5.134;2023-12-14T02:45:02;101254.69;;;5.53;100.00
70546;BME280;58098;51.680;5.134;2023-12-14T02:47:28;101261.56;;;5.54;100.00
70546;BME280;58098;51.680;5.134;2023-12-14T02:49:54;101275.53;;;5.67;100.00
70546;BME280;58098;51.680;5.134;2023-12-14T02:52:19;101276.75;;;5.60;100.00
70546;BME280;58098;51.680;5.134;2023-12-14T02:54:45;101273.75;;;5.52;100.00
70546;BME280;58098;51.680;5.134;2023-12-14T02:57:10;101274.75;;;5.50;100.00
70546;BME280;58098;51.680;5.134;2023-12-14T02:59:35;101284.75;;;5.56;100.00
70546;BME280;58098;51.680;5.134;2023-12-14T03:02:01;101271.44;;;5.46;100.00
70546;BME280;58098;51.680;5.134;2023-12-14T03:04:26;101273.75;;;5.52;100.00
70546;BME280;58098;51.680;5.134;2023-12-14T03:06:52;101288.78;;;5.61;100.00
70546;BME280;58098;51.680;5.134;2023-12-14T03:09:17;101305.78;;;5.67;100.00
70546;BME280;58098;51.680;5.134;2023-12-14T03:11:44;101290.25;;;5.67;100.00
70546;BME280;58098;51.680;5.134;2023-12-14T03:14:09;101298.31;;;5.61;100.00
70546;BME280;58098;51.680;5.134;2023-12-14T03:16:35;101313.16;;;5.57;100.00
70546;BME280;58098;51.680;5.134;2023-12-14T03:19:01;101291.25;;;5.47;100.00
70546;BME280;58098;51.680;5.134;2023-12-14T03:21:26;101308.28;;;5.51;100.00
70546;BME280;58098;51.680;5.134;2023-12-14T03:23:52;101308.97;;;5.55;100.00
70546;BME280;58098;51.680;5.134;2023-12-14T03:26:17;101314.75;;;5.60;100.00
70546;BME280;58098;51.680;5.134;2023-12-14T03:28:43;101307.31;;;5.54;100.00
70546;BME280;58098;51.680;5.134;2023-12-14T03:31:11;101324.19;;;5.61;100.00
70546;BME280;58098;51.680;5.134;2023-12-14T03:33:37;101304.19;;;5.47;100.00
70546;BME280;58098;51.680;5.134;2023-12-14T03:36:03;101318.63;;;5.51;100.00
70546;BME280;58098;51.680;5.134;2023-12-14T03:38:28;101322.91;;;5.52;100.00
70546;BME280;58098;51.680;5.134;2023-12-14T03:40:53;101310.88;;;5.34;100.00
70546;BME280;58098;51.680;5.134;2023-12-14T03:43:19;101310.50;;;5.42;100.00
70546;BME280;58098;51.680;5.134;2023-12-14T03:45:44;101296.56;;;5.44;100.00
70546;BME280;58098;51.680;5.134;2023-12-14T03:48:10;101303.59;;;5.42;100.00
70546;BME280;58098;51.680;5.134;2023-12-14T03:50:35;101323.53;;;5.57;100.00
70546;BME280;58098;51.680;5.134;2023-12-14T03:53:01;101329.50;;;5.58;100.00
70546;BME280;58098;51.680;5.134;2023-12-14T03:55:26;101307.91;;;5.42;100.00
70546;BME280;58098;51.680;5.134;2023-12-14T03:57:51;101314.59;;;5.46;100.00
70546;BME280;58098;51.680;5.134;2023-12-14T04:00:17;101308.22;;;5.35;100.00
70546;BME280;58098;51.680;5.134;2023-12-14T04:02:42;101320.25;;;5.37;100.00
70546;BME280;58098;51.680;5.134;2023-12-14T04:05:08;101337.06;;;5.45;100.00
70546;BME280;58098;51.680;5.134;2023-12-14T04:07:38;101337.66;;;5.50;100.00
70546;BME280;58098;51.680;5.134;2023-12-14T04:10:09;101351.38;;;5.52;100.00
70546;BME280;58098;51.680;5.134;2023-12-14T04:12:38;101344.81;;;5.45;100.00
70546;BME280;58098;51.680;5.134;2023-12-14T04:15:05;101355.34;;;5.42;100.00
70546;BME280;58098;51.680;5.134;2023-12-14T04:17:31;101359.97;;;5.35;100.00
70546;BME280;58098;51.680;5.134;2023-12-14T04:19:57;101372.53;;;5.43;100.00
70546;BME280;58098;51.680;5.134;2023-12-14T04:22:22;101377.41;;;5.32;100.00
70546;BME280;58098;51.680;5.134;2023-12-14T04:24:48;101371.09;;;5.38;100.00
70546;BME280;58098;51.680;5.134;2023-12-14T04:27:14;101382.34;;;5.37;100.00
70546;BME280;58098;51.680;5.134;2023-12-14T04:29:39;101397.50;;;5.44;100.00
70546;BME280;58098;51.680;5.134;2023-12-14T04:32:05;101376.47;;;5.33;100.00
70546;BME280;58098;51.680;5.134;2023-12-14T04:34:30;101388.38;;;5.37;100.00
70546;BME280;58098;51.680;5.134;2023-12-14T04:36:56;101397.03;;;5.36;100.00
70546;BME280;58098;51.680;5.134;2023-12-14T04:39:23;101410.56;;;5.41;100.00
70546;BME280;58098;51.680;5.134;2023-12-14T04:41:50;101410.56;;;5.41;100.00
70546;BME280;58098;51.680;5.134;2023-12-14T04:44:15;101402.19;;;5.36;100.00
70546;BME280;58098;51.680;5.134;2023-12-14T04:46:41;101431.75;;;5.49;100.00
70546;BME280;58098;51.680;5.134;2023-12-14T04:49:06;101434.50;;;5.46;100.00
70546;BME280;58098;51.680;5.134;2023-12-14T04:51:31;101435.19;;;5.50;100.00
70546;BME280;58098;51.680;5.134;2023-12-14T04:53:57;101443.00;;;5.48;100.00
70546;BME280;58098;51.680;5.134;2023-12-14T04:56:23;101426.41;;;5.35;100.00
70546;BME280;58098;51.680;5.134;2023-12-14T04:58:48;101445.16;;;5.40;100.00
70546;BME280;58098;51.680;5.134;2023-12-14T05:01:13;101453.28;;;5.32;100.00
70546;BME280;58098;51.680;5.134;2023-12-14T05:03:39;101448.31;;;5.45;100.00
70546;BME280;58098;51.680;5.134;2023-12-14T05:06:05;101448.63;;;5.39;100.00
70546;BME280;58098;51.680;5.134;2023-12-14T05:08:30;101458.91;;;5.41;100.00
70546;BME280;58098;51.680;5.134;2023-12-14T05:10:56;101459.47;;;5.47;100.00
70546;BME280;58098;51.680;5.134;2023-12-14T05:13:21;101470.56;;;5.49;100.00
70546;BME280;58098;51.680;5.134;2023-12-14T05:15:46;101477.72;;;5.44;100.00
70546;BME280;58098;51.680;5.134;2023-12-14T05:18:12;101488.50;;;5.35;100.00
70546;BME280;58098;51.680;5.134;2023-12-14T05:20:37;101495.44;;;5.34;100.00
70546;BME280;58098;51.680;5.134;2023-12-14T05:23:03;101487.88;;;5.30;100.00
70546;BME280;58098;51.680;5.134;2023-12-14T05:25:28;101504.94;;;5.34;100.00
70546;BME280;58098;51.680;5.134;2023-12-14T05:27:53;101510.31;;;5.29;100.00
70546;BME280;58098;51.680;5.134;2023-12-14T05:30:19;101512.91;;;5.29;100.00
70546;BME280;58098;51.680;5.134;2023-12-14T05:32:44;101529.81;;;5.37;100.00
70546;BME280;58098;51.680;5.134;2023-12-14T05:35:10;101525.56;;;5.35;100.00
70546;BME280;58098;51.680;5.134;2023-12-14T05:37:38;101525.84;;;5.29;100.00
70546;BME280;58098;51.680;5.134;2023-12-14T05:40:04;101525.84;;;5.29;100.00
70546;BME280;58098;51.680;5.134;2023-12-14T05:42:30;101536.34;;;5.26;100.00
70546;BME280;58098;51.680;5.134;2023-12-14T05:44:55;101528.78;;;5.22;100.00
70546;BME280;58098;51.680;5.134;2023-12-14T05:47:20;101533.69;;;5.28;100.00
70546;BME280;58098;51.680;5.134;2023-12-14T05:49:46;101540.44;;;5.30;100.00
70546;BME280;58098;51.680;5.134;2023-12-14T05:52:11;101542.97;;;5.32;100.00
70546;BME280;58098;51.680;5.134;2023-12-14T05:54:37;101561.34;;;5.26;100.00
70546;BME280;58098;51.680;5.134;2023-12-14T05:57:03;101566.41;;;5.29;100.00
70546;BME280;58098;51.680;5.134;2023-12-14T05:59:29;101570.38;;;5.17;100.00
70546;BME280;58098;51.680;5.134;2023-12-14T06:01:58;101580.59;;;5.20;100.00
70546;BME280;58098;51.680;5.134;2023-12-14T06:04:24;101580.53;;;5.22;100.00
70546;BME280;58098;51.680;5.134;2023-12-14T06:06:49;101579.69;;;5.21;100.00
70546;BME280;58098;51.680;5.134;2023-12-14T06:09:14;101580.66;;;5.19;100.00
70546;BME280;58098;51.680;5.134;2023-12-14T06:11:40;101569.63;;;5.15;100.00
70546;BME280;58098;51.680;5.134;2023-12-14T06:14:05;101588.75;;;5.11;100.00
70546;BME280;58098;51.680;5.134;2023-12-14T06:16:30;101576.94;;;5.06;100.00
70546;BME280;58098;51.680;5.134;2023-12-14T06:18:55;101593.22;;;5.08;100.00
70546;BME280;58098;51.680;5.134;2023-12-14T06:21:21;101615.75;;;5.06;100.00
70546;BME280;58098;51.680;5.134;2023-12-14T06:23:46;101609.59;;;5.08;100.00
70546;BME280;58098;51.680;5.134;2023-12-14T06:26:11;101618.00;;;5.13;100.00
70546;BME280;58098;51.680;5.134;2023-12-14T06:28:37;101615.97;;;5.20;100.00
70546;BME280;58098;51.680;5.134;2023-12-14T06:31:02;101610.41;;;5.09;100.00
70546;BME280;58098;51.680;5.134;2023-12-14T06:33:27;101616.75;;;5.02;100.00
70546;BME280;58098;51.680;5.134;2023-12-14T06:35:53;101624.19;;;5.09;100.00
70546;BME280;58098;51.680;5.134;2023-12-14T06:38:18;101627.38;;;4.96;100.00
70546;BME280;58098;51.680;5.134;2023-12-14T06:40:44;101626.88;;;4.88;100.00
70546;BME280;58098;51.680;5.134;2023-12-14T06:43:09;101646.69;;;4.87;100.00
70546;BME280;58098;51.680;5.134;2023-12-14T06:45:36;101651.50;;;4.96;100.00
70546;BME280;58098;51.680;5.134;2023-12-14T06:48:02;101657.38;;;5.00;100.00
70546;BME280;58098;51.680;5.134;2023-12-14T06:50:28;101663.28;;;5.03;100.00
70546;BME280;58098;51.680;5.134;2023-12-14T06:52:53;101655.84;;;4.96;100.00
70546;BME280;58098;51.680;5.134;2023-12-14T06:55:19;101676.75;;;4.90;100.00
70546;BME280;58098;51.680;5.134;2023-12-14T06:57:44;101671.13;;;4.80;100.00
70546;BME280;58098;51.680;5.134;2023-12-14T07:00:12;101680.63;;;4.80;100.00
70546;BME280;58098;51.680;5.134;2023-12-14T07:02:38;101683.94;;;4.83;100.00
70546;BME280;58098;51.680;5.134;2023-12-14T07:05:04;101692.03;;;4.96;100.00
70546;BME280;58098;51.680;5.134;2023-12-14T07:07:29;101704.34;;;4.89;100.00
70546;BME280;58098;51.680;5.134;2023-12-14T07:09:55;101689.84;;;4.87;100.00
70546;BME280;58098;51.680;5.134;2023-12-14T07:12:20;101692.28;;;4.90;100.00
70546;BME280;58098;51.680;5.134;2023-12-14T07:14:45;101709.06;;;4.80;100.00
70546;BME280;58098;51.680;5.134;2023-12-14T07:17:11;101707.13;;;4.85;100.00
70546;BME280;58098;51.680;5.134;2023-12-14T07:19:36;101721.41;;;4.73;100.00
70546;BME280;58098;51.680;5.134;2023-12-14T07:22:01;101735.97;;;4.76;100.00
70546;BME280;58098;51.680;5.134;2023-12-14T07:24:27;101721.69;;;4.67;100.00
70546;BME280;58098;51.680;5.134;2023-12-14T07:26:52;101739.31;;;4.78;100.00
70546;BME280;58098;51.680;5.134;2023-12-14T07:29:17;101753.97;;;4.77;100.00
70546;BME280;58098;51.680;5.134;2023-12-14T07:31:43;101755.78;;;4.75;100.00
70546;BME280;58098;51.680;5.134;2023-12-14T07:34:08;101752.25;;;4.78;100.00
70546;BME280;58098;51.680;5.134;2023-12-14T07:36:33;101757.59;;;4.73;100.00
70546;BME280;58098;51.680;5.134;2023-12-14T07:38:59;101752.22;;;4.57;100.00
70546;BME280;58098;51.680;5.134;2023-12-14T07:41:26;101765.78;;;4.62;100.00
70546;BME280;58098;51.680;5.134;2023-12-14T07:43:55;101755.50;;;4.61;100.00
70546;BME280;58098;51.680;5.134;2023-12-14T07:46:20;101759.91;;;4.59;100.00
70546;BME280;58098;51.680;5.134;2023-12-14T07:48:45;101740.31;;;4.53;100.00
70546;BME280;58098;51.680;5.134;2023-12-14T07:51:11;101772.41;;;4.70;100.00
70546;BME280;58098;51.680;5.134;2023-12-14T07:53:36;101771.38;;;4.74;100.00
70546;BME280;58098;51.680;5.134;2023-12-14T07:56:02;101772.41;;;4.70;100.00
70546;BME280;58098;51.680;5.134;2023-12-14T07:58:28;101783.22;;;4.57;100.00
70546;BME280;58098;51.680;5.134;2023-12-14T08:00:53;101780.03;;;4.51;100.00
70546;BME280;58098;51.680;5.134;2023-12-14T08:03:18;101778.94;;;4.56;100.00
70546;BME280;58098;51.680;5.134;2023-12-14T08:05:44;101774.38;;;4.63;100.00
70546;BME280;58098;51.680;5.134;2023-12-14T08:08:09;101796.44;;;4.72;100.00
70546;BME280;58098;51.680;5.134;2023-12-14T08:10:34;101792.84;;;4.76;100.00
70546;BME280;58098;51.680;5.134;2023-12-14T08:13:00;101799.03;;;4.72;100.00
70546;BME280;58098;51.680;5.134;2023-12-14T08:15:25;101805.94;;;4.71;100.00
70546;BME280;58098;51.680;5.134;2023-12-14T08:17:50;101811.34;;;4.65;100.00
70546;BME280;58098;51.680;5.134;2023-12-14T08:20:16;101816.56;;;4.63;100.00
70546;BME280;58098;51.680;5.134;2023-12-14T08:22:41;101830.16;;;4.68;100.00
70546;BME280;58098;51.680;5.134;2023-12-14T08:25:11;101832.81;;;4.67;100.00
70546;BME280;58098;51.680;5.134;2023-12-14T08:27:37;101839.75;;;4.65;100.00
70546;BME280;58098;51.680;5.134;2023-12-14T08:30:03;101833.53;;;4.71;100.00
70546;BME280;58098;51.680;5.134;2023-12-14T08:32:28;101829.09;;;4.74;100.00
70546;BME280;58098;51.680;5.134;2023-12-14T08:34:54;101835.94;;;4.75;100.00
70546;BME280;58098;51.680;5.134;2023-12-14T08:37:19;101831.19;;;4.64;100.00
70546;BME280;58098;51.680;5.134;2023-12-14T08:39:45;101841.41;;;4.67;100.00
70546;BME280;58098;51.680;5.134;2023-12-14T08:42:10;101840.13;;;4.56;100.00
70546;BME280;58098;51.680;5.134;2023-12-14T08:44:39;101841.75;;;4.58;100.00
70546;BME280;58098;51.680;5.134;2023-12-14T08:47:04;101861.28;;;4.65;100.00
70546;BME280;58098;51.680;5.134;2023-12-14T08:49:30;101857.19;;;4.60;100.00
70546;BME280;58098;51.680;5.134;2023-12-14T08:51:55;101888.88;;;4.65;100.00
70546;BME280;58098;51.680;5.134;2023-12-14T08:54:21;101878.84;;;4.57;100.00
70546;BME280;58098;51.680;5.134;2023-12-14T08:56:46;101883.09;;;4.58;100.00
70546;BME280;58098;51.680;5.134;2023-12-14T08:59:13;101884.97;;;4.55;100.00
70546;BME280;58098;51.680;5.134;2023-12-14T09:01:38;101896.19;;;4.54;100.00
70546;BME280;58098;51.680;5.134;2023-12-14T09:04:04;101890.84;;;4.58;100.00
70546;BME280;58098;51.680;5.134;2023-12-14T09:06:29;101895.19;;;4.58;100.00
70546;BME280;58098;51.680;5.134;2023-12-14T09:08:54;101895.25;;;4.56;100.00
70546;BME280;58098;51.680;5.134;2023-12-14T09:11:20;101901.25;;;4.57;100.00
70546;BME280;58098;51.680;5.134;2023-12-14T09:13:45;101917.28;;;4.66;100.00
70546;BME280;58098;51.680;5.134;2023-12-14T09:16:10;101937.44;;;4.57;100.00
70546;BME280;58098;51.680;5.134;2023-12-14T09:18:36;101943.47;;;4.57;100.00
70546;BME280;58098;51.680;5.134;2023-12-14T09:21:01;101931.63;;;4.50;100.00
70546;BME280;58098;51.680;5.134;2023-12-14T09:23:27;101947.72;;;4.58;100.00
70546;BME280;58098;51.680;5.134;2023-12-14T09:25:52;101954.44;;;4.62;100.00
70546;BME280;58098;51.680;5.134;2023-12-14T09:28:17;101950.97;;;4.63;100.00
70546;BME280;58098;51.680;5.134;2023-12-14T09:30:43;101942.09;;;4.71;100.00
70546;BME280;58098;51.680;5.134;2023-12-14T09:33:09;101970.44;;;4.74;100.00
70546;BME280;58098;51.680;5.134;2023-12-14T09:35:35;101974.53;;;4.79;100.00
70546;BME280;58098;51.680;5.134;2023-12-14T09:38:05;101980.41;;;4.83;100.00
70546;BME280;58098;51.680;5.134;2023-12-14T09:40:31;101975.16;;;4.86;100.00
70546;BME280;58098;51.680;5.134;2023-12-14T09:42:56;101988.75;;;4.91;100.00
70546;BME280;58098;51.680;5.134;2023-12-14T09:45:28;101993.69;;;4.97;100.00
70546;BME280;58098;51.680;5.134;2023-12-14T09:47:56;101981.66;;;4.96;100.00
70546;BME280;58098;51.680;5.134;2023-12-14T09:50:23;102002.88;;;5.04;100.00
70546;BME280;58098;51.680;5.134;2023-12-14T09:52:49;102008.13;;;5.02;100.00
70546;BME280;58098;51.680;5.134;2023-12-14T09:55:15;102010.78;;;5.01;100.00
70546;BME280;58098;51.680;5.134;2023-12-14T09:57:40;102005.53;;;5.02;100.00
70546;BME280;58098;51.680;5.134;2023-12-14T10:00:06;102002.69;;;5.10;100.00
70546;BME280;58098;51.680;5.134;2023-12-14T10:02:35;102009.97;;;5.22;100.00
70546;BME280;58098;51.680;5.134;2023-12-14T10:05:00;102000.03;;;5.33;100.00
70546;BME280;58098;51.680;5.134;2023-12-14T10:07:26;102001.19;;;5.48;100.00
70546;BME280;58098;51.680;5.134;2023-12-14T10:09:51;102012.94;;;5.56;100.00
70546;BME280;58098;51.680;5.134;2023-12-14T10:12:18;102001.06;;;5.51;100.00
70546;BME280;58098;51.680;5.134;2023-12-14T10:14:43;102013.97;;;5.52;100.00
70546;BME280;58098;51.680;5.134;2023-12-14T10:17:20;102023.19;;;5.59;100.00
70546;BME280;58098;51.680;5.134;2023-12-14T10:19:47;102025.00;;;5.57;100.00
70546;BME280;58098;51.680;5.134;2023-12-14T10:22:17;102034.22;;;5.64;100.00
70546;BME280;58098;51.680;5.134;2023-12-14T10:24:46;102024.56;;;5.68;100.00
70546;BME280;58098;51.680;5.134;2023-12-14T10:27:14;102023.72;;;5.67;100.00
70546;BME280;58098;51.680;5.134;2023-12-14T10:29:40;102025.97;;;5.55;100.00
70546;BME280;58098;51.680;5.134;2023-12-14T10:32:06;102031.53;;;5.44;100.00
70546;BME280;58098;51.680;5.134;2023-12-14T10:34:34;102040.34;;;5.40;100.00
70546;BME280;58098;51.680;5.134;2023-12-14T10:37:01;102040.34;;;5.40;100.00
70546;BME280;58098;51.680;5.134;2023-12-14T10:39:29;102029.66;;;5.26;100.00
70546;BME280;58098;51.680;5.134;2023-12-14T10:41:56;102044.66;;;5.40;100.00
70546;BME280;58098;51.680;5.134;2023-12-14T10:44:25;102059.53;;;5.34;100.00
70546;BME280;58098;51.680;5.134;2023-12-14T10:46:58;102032.97;;;5.29;100.00
70546;BME280;58098;51.680;5.134;2023-12-14T10:49:26;102055.41;;;5.29;100.00
70546;BME280;58098;51.680;5.134;2023-12-14T10:51:53;102045.78;;;5.09;100.00
70546;BME280;58098;51.680;5.134;2023-12-14T10:54:22;102055.19;;;5.12;100.00
70546;BME280;58098;51.680;5.134;2023-12-14T10:56:48;102049.91;;;5.15;100.00
70546;BME280;58098;51.680;5.134;2023-12-14T10:59:15;102055.94;;;5.15;100.00
70546;BME280;58098;51.680;5.134;2023-12-14T11:01:42;102056.03;;;5.12;100.00
70546;BME280;58098;51.680;5.134;2023-12-14T11:04:07;102070.81;;;5.09;100.00
70546;BME280;58098;51.680;5.134;2023-12-14T11:06:38;102059.25;;;4.96;100.00
70546;BME280;58098;51.680;5.134;2023-12-14T11:09:05;102073.84;;;4.97;100.00
70546;BME280;58098;51.680;5.134;2023-12-14T11:14:08;102079.84;;;4.99;100.00
70546;BME280;58098;51.680;5.134;2023-12-14T11:16:36;102059.59;;;4.87;100.00
70546;BME280;58098;51.680;5.134;2023-12-14T11:19:26;102092.16;;;5.15;100.00
70546;BME280;58098;51.680;5.134;2023-12-14T11:22:09;102082.75;;;5.13;100.00
70546;BME280;58098;51.680;5.134;2023-12-14T11:24:35;102082.75;;;5.13;100.00
70546;BME280;58098;51.680;5.134;2023-12-14T11:27:06;102085.78;;;5.24;100.00
70546;BME280;58098;51.680;5.134;2023-12-14T11:29:32;102091.47;;;5.33;100.00
70546;BME280;58098;51.680;5.134;2023-12-14T11:31:58;102071.59;;;5.34;100.00
70546;BME280;58098;51.680;5.134;2023-12-14T11:34:27;102097.19;;;5.42;100.00
70546;BME280;58098;51.680;5.134;2023-12-14T11:36:54;102084.63;;;5.32;100.00
70546;BME280;58098;51.680;5.134;2023-12-14T11:39:19;102096.25;;;5.44;100.00
70546;BME280;58098;51.680;5.134;2023-12-14T11:42:01;102105.06;;;5.62;100.00
70546;BME280;58098;51.680;5.134;2023-12-14T11:44:27;102102.97;;;5.71;100.00
70546;BME280;58098;51.680;5.134;2023-12-14T11:46:52;102096.75;;;5.75;100.00
70546;BME280;58098;51.680;5.134;2023-12-14T11:49:18;102109.25;;;5.87;100.00
70546;BME280;58098;51.680;5.134;2023-12-14T11:51:46;102097.88;;;5.91;100.00
70546;BME280;58098;51.680;5.134;2023-12-14T11:54:11;102106.94;;;6.03;100.00
70546;BME280;58098;51.680;5.134;2023-12-14T11:56:37;102103.13;;;6.12;100.00
70546;BME280;58098;51.680;5.134;2023-12-14T11:59:02;102100.41;;;6.15;100.00
70546;BME280;58098;51.680;5.134;2023-12-14T12:01:27;102103.88;;;6.14;100.00
70546;BME280;58098;51.680;5.134;2023-12-14T12:03:53;102100.47;;;6.13;100.00
70546;BME280;58098;51.680;5.134;2023-12-14T12:06:23;102093.72;;;6.09;100.00
70546;BME280;58098;51.680;5.134;2023-12-14T12:08:49;102115.75;;;6.19;100.00
70546;BME280;58098;51.680;5.134;2023-12-14T12:11:21;102118.44;;;6.18;100.00
70546;BME280;58098;51.680;5.134;2023-12-14T12:13:55;102101.09;;;5.98;100.00
70546;BME280;58098;51.680;5.134;2023-12-14T12:16:21;102121.03;;;5.96;100.00
70546;BME280;58098;51.680;5.134;2023-12-14T12:18:46;102109.19;;;5.89;100.00
70546;BME280;58098;51.680;5.134;2023-12-14T12:21:12;102116.38;;;6.04;100.00
70546;BME280;58098;51.680;5.134;2023-12-14T12:23:38;102122.00;;;5.93;100.00
70546;BME280;58098;51.680;5.134;2023-12-14T12:26:03;102119.34;;;5.95;100.00
70546;BME280;58098;51.680;5.134;2023-12-14T12:28:30;102131.91;;;6.04;100.00
70546;BME280;58098;51.680;5.134;2023-12-14T12:30:56;102135.06;;;6.12;100.00
70546;BME280;58098;51.680;5.134;2023-12-14T12:33:21;102119.72;;;6.06;100.00
70546;BME280;58098;51.680;5.134;2023-12-14T12:35:46;102127.22;;;6.14;100.00
70546;BME280;58098;51.680;5.134;2023-12-14T12:38:12;102139.38;;;6.12;100.00
70546;BME280;58098;51.680;5.134;2023-12-14T12:40:37;102124.28;;;6.01;100.00
70546;BME280;58098;51.680;5.134;2023-12-14T12:43:03;102141.00;;;6.14;100.00
70546;BME280;58098;51.680;5.134;2023-12-14T12:45:29;102136.59;;;6.16;100.00
70546;BME280;58098;51.680;5.134;2023-12-14T12:47:54;102141.56;;;6.22;100.00
70546;BME280;58098;51.680;5.134;2023-12-14T12:50:20;102129.63;;;6.18;100.00